sensor_id;sensor_type;location;lat;lon;timestamp;P1;durP1;ratioP1;P2;durP2;ratioP2
10902;SDS011;5504;47.312;11.060;2022-07-03T00:00:31;3.10;;;2.80;;
10902;SDS011;5504;47.312;11.060;2022-07-03T00:02:57;2.80;;;2.60;;
10902;SDS011;5504;47.312;11.060;2022-07-03T00:05:23;3.20;;;2.90;;
10902;SDS011;5504;47.312;11.060;2022-07-03T00:07:49;3.27;;;2.90;;
10902;SDS011;5504;47.312;11.060;2022-07-03T00:10:15;3.88;;;3.20;;
10902;SDS011;5504;47.312;11.060;2022-07-03T00:12:40;2.93;;;2.73;;
10902;SDS011;5504;47.312;11.060;2022-07-03T00:15:06;3.03;;;2.83;;
10902;SDS011;5504;47.312;11.060;2022-07-03T00:17:32;3.00;;;2.80;;
10902;SDS011;5504;47.312;11.060;2022-07-03T00:19:58;3.53;;;2.83;;
10902;SDS011;5504;47.312;11.060;2022-07-03T00:22:24;3.10;;;2.90;;
10902;SDS011;5504;47.312;11.060;2022-07-03T00:24:51;3.17;;;2.97;;
10902;SDS011;5504;47.312;11.060;2022-07-03T00:27:19;2.87;;;2.63;;
10902;SDS011;5504;47.312;11.060;2022-07-03T00:29:49;3.40;;;2.83;;
10902;SDS011;5504;47.312;11.060;2022-07-03T00:32:22;3.00;;;2.43;;
10902;SDS011;5504;47.312;11.060;2022-07-03T00:34:52;4.97;;;3.10;;
10902;SDS011;5504;47.312;11.060;2022-07-03T00:37:19;3.57;;;2.87;;
10902;SDS011;5504;47.312;11.060;2022-07-03T00:39:46;3.77;;;2.73;;
10902;SDS011;5504;47.312;11.060;2022-07-03T00:42:16;3.20;;;2.90;;
10902;SDS011;5504;47.312;11.060;2022-07-03T00:44:47;3.77;;;2.83;;
10902;SDS011;5504;47.312;11.060;2022-07-03T00:47:14;4.53;;;2.77;;
10902;SDS011;5504;47.312;11.060;2022-07-03T00:49:44;3.57;;;2.70;;
10902;SDS011;5504;47.312;11.060;2022-07-03T00:52:13;3.43;;;2.90;;
10902;SDS011;5504;47.312;11.060;2022-07-03T00:54:44;3.43;;;3.13;;
10902;SDS011;5504;47.312;11.060;2022-07-03T00:57:15;2.63;;;2.43;;
10902;SDS011;5504;47.312;11.060;2022-07-03T00:59:42;3.80;;;3.10;;
10902;SDS011;5504;47.312;11.060;2022-07-03T01:02:08;3.33;;;3.00;;
10902;SDS011;5504;47.312;11.060;2022-07-03T01:08:11;3.20;;;3.00;;
10902;SDS011;5504;47.312;11.060;2022-07-03T01:10:47;4.23;;;3.43;;
10902;SDS011;5504;47.312;11.060;2022-07-03T01:13:18;5.20;;;3.27;;
10902;SDS011;5504;47.312;11.060;2022-07-03T01:26:54;3.23;;;2.93;;
10902;SDS011;5504;47.312;11.060;2022-07-03T01:29:22;3.20;;;3.00;;
10902;SDS011;5504;47.312;11.060;2022-07-03T01:31:54;5.63;;;3.23;;
10902;SDS011;5504;47.312;11.060;2022-07-03T01:34:24;3.30;;;3.10;;
10902;SDS011;5504;47.312;11.060;2022-07-03T01:36:55;3.63;;;3.10;;
10902;SDS011;5504;47.312;11.060;2022-07-03T01:39:25;3.57;;;3.27;;
10902;SDS011;5504;47.312;11.060;2022-07-03T01:41:53;3.57;;;3.27;;
10902;SDS011;5504;47.312;11.060;2022-07-03T01:44:24;3.33;;;3.10;;
10902;SDS011;5504;47.312;11.060;2022-07-03T01:46:52;3.50;;;3.20;;
10902;SDS011;5504;47.312;11.060;2022-07-03T01:49:21;3.57;;;3.10;;
10902;SDS011;5504;47.312;11.060;2022-07-03T01:51:48;5.47;;;3.43;;
10902;SDS011;5504;47.312;11.060;2022-07-03T01:54:15;3.50;;;3.20;;
10902;SDS011;5504;47.312;11.060;2022-07-03T01:56:42;3.93;;;3.20;;
10902;SDS011;5504;47.312;11.060;2022-07-03T01:59:09;3.43;;;3.03;;
10902;SDS011;5504;47.312;11.060;2022-07-03T02:01:48;3.63;;;3.27;;
10902;SDS011;5504;47.312;11.060;2022-07-03T02:04:23;3.23;;;2.93;;
10902;SDS011;5504;47.312;11.060;2022-07-03T02:09:24;3.50;;;3.00;;
10902;SDS011;5504;47.312;11.060;2022-07-03T02:12:14;3.30;;;3.10;;
10902;SDS011;5504;47.312;11.060;2022-07-03T02:14:48;3.73;;;3.43;;
10902;SDS011;5504;47.312;11.060;2022-07-03T02:17:23;3.63;;;3.33;;
10902;SDS011;5504;47.312;11.060;2022-07-03T02:20:02;3.40;;;3.20;;
10902;SDS011;5504;47.312;11.060;2022-07-03T02:22:37;3.63;;;3.33;;
10902;SDS011;5504;47.312;11.060;2022-07-03T02:25:07;4.03;;;3.27;;
10902;SDS011;5504;47.312;11.060;2022-07-03T02:27:42;5.03;;;3.37;;
10902;SDS011;5504;47.312;11.060;2022-07-03T02:30:23;3.43;;;3.13;;
10902;SDS011;5504;47.312;11.060;2022-07-03T02:32:50;3.70;;;3.40;;
10902;SDS011;5504;47.312;11.060;2022-07-03T02:35:18;3.50;;;3.20;;
10902;SDS011;5504;47.312;11.060;2022-07-03T02:37:56;3.40;;;3.20;;
10902;SDS011;5504;47.312;11.060;2022-07-03T02:43:23;4.17;;;3.70;;
10902;SDS011;5504;47.312;11.060;2022-07-03T02:51:57;3.40;;;3.10;;
10902;SDS011;5504;47.312;11.060;2022-07-03T02:54:46;3.33;;;3.03;;
10902;SDS011;5504;47.312;11.060;2022-07-03T02:57:13;3.87;;;3.57;;
10902;SDS011;5504;47.312;11.060;2022-07-03T03:02:07;3.60;;;3.30;;
10902;SDS011;5504;47.312;11.060;2022-07-03T03:04:37;3.97;;;3.67;;
10902;SDS011;5504;47.312;11.060;2022-07-03T03:07:14;4.03;;;3.63;;
10902;SDS011;5504;47.312;11.060;2022-07-03T03:09:44;4.23;;;3.80;;
10902;SDS011;5504;47.312;11.060;2022-07-03T03:12:12;4.17;;;3.50;;
10902;SDS011;5504;47.312;11.060;2022-07-03T03:14:42;5.37;;;3.40;;
10902;SDS011;5504;47.312;11.060;2022-07-03T03:17:11;3.70;;;3.50;;
10902;SDS011;5504;47.312;11.060;2022-07-03T03:19:41;3.40;;;3.20;;
10902;SDS011;5504;47.312;11.060;2022-07-03T03:24:43;3.57;;;3.27;;
10902;SDS011;5504;47.312;11.060;2022-07-03T03:27:10;3.80;;;3.33;;
10902;SDS011;5504;47.312;11.060;2022-07-03T03:29:36;5.90;;;3.60;;
10902;SDS011;5504;47.312;11.060;2022-07-03T03:32:03;3.90;;;3.60;;
10902;SDS011;5504;47.312;11.060;2022-07-03T03:34:30;3.77;;;3.40;;
10902;SDS011;5504;47.312;11.060;2022-07-03T03:36:57;4.07;;;3.77;;
10902;SDS011;5504;47.312;11.060;2022-07-03T03:39:23;5.03;;;3.80;;
10902;SDS011;5504;47.312;11.060;2022-07-03T03:41:50;5.27;;;3.70;;
10902;SDS011;5504;47.312;11.060;2022-07-03T03:44:17;4.03;;;3.60;;
10902;SDS011;5504;47.312;11.060;2022-07-03T03:46:43;4.10;;;3.80;;
10902;SDS011;5504;47.312;11.060;2022-07-03T03:49:09;4.10;;;3.70;;
10902;SDS011;5504;47.312;11.060;2022-07-03T03:51:34;4.17;;;3.77;;
10902;SDS011;5504;47.312;11.060;2022-07-03T03:54:00;3.97;;;3.67;;
10902;SDS011;5504;47.312;11.060;2022-07-03T03:56:28;4.63;;;4.00;;
10902;SDS011;5504;47.312;11.060;2022-07-03T03:58:54;3.83;;;3.50;;
10902;SDS011;5504;47.312;11.060;2022-07-03T04:01:20;3.50;;;3.20;;
10902;SDS011;5504;47.312;11.060;2022-07-03T04:03:45;4.27;;;3.87;;
10902;SDS011;5504;47.312;11.060;2022-07-03T04:06:11;4.10;;;3.80;;
10902;SDS011;5504;47.312;11.060;2022-07-03T04:08:37;3.90;;;3.50;;
10902;SDS011;5504;47.312;11.060;2022-07-03T04:11:03;4.80;;;3.77;;
10902;SDS011;5504;47.312;11.060;2022-07-03T04:13:28;4.27;;;3.97;;
10902;SDS011;5504;47.312;11.060;2022-07-03T04:15:54;5.87;;;3.60;;
10902;SDS011;5504;47.312;11.060;2022-07-03T04:18:20;4.33;;;3.70;;
10902;SDS011;5504;47.312;11.060;2022-07-03T04:20:46;3.90;;;3.50;;
10902;SDS011;5504;47.312;11.060;2022-07-03T04:23:12;3.97;;;3.67;;
10902;SDS011;5504;47.312;11.060;2022-07-03T04:25:38;4.70;;;3.80;;
10902;SDS011;5504;47.312;11.060;2022-07-03T04:28:04;4.20;;;3.90;;
10902;SDS011;5504;47.312;11.060;2022-07-03T04:30:29;4.17;;;3.77;;
10902;SDS011;5504;47.312;11.060;2022-07-03T04:32:55;4.40;;;4.00;;
10902;SDS011;5504;47.312;11.060;2022-07-03T04:35:21;4.40;;;4.00;;
10902;SDS011;5504;47.312;11.060;2022-07-03T04:37:47;4.00;;;3.70;;
10902;SDS011;5504;47.312;11.060;2022-07-03T04:40:12;3.93;;;3.63;;
10902;SDS011;5504;47.312;11.060;2022-07-03T04:42:39;4.97;;;4.47;;
10902;SDS011;5504;47.312;11.060;2022-07-03T04:45:05;4.50;;;4.07;;
10902;SDS011;5504;47.312;11.060;2022-07-03T04:47:32;4.27;;;3.97;;
10902;SDS011;5504;47.312;11.060;2022-07-03T04:49:58;4.30;;;3.90;;
10902;SDS011;5504;47.312;11.060;2022-07-03T04:52:23;4.53;;;4.23;;
10902;SDS011;5504;47.312;11.060;2022-07-03T04:54:49;5.13;;;4.03;;
10902;SDS011;5504;47.312;11.060;2022-07-03T04:57:15;4.63;;;4.23;;
10902;SDS011;5504;47.312;11.060;2022-07-03T04:59:41;4.80;;;4.40;;
10902;SDS011;5504;47.312;11.060;2022-07-03T05:02:06;6.27;;;4.50;;
10902;SDS011;5504;47.312;11.060;2022-07-03T05:04:32;5.13;;;4.30;;
10902;SDS011;5504;47.312;11.060;2022-07-03T05:06:58;6.57;;;4.50;;
10902;SDS011;5504;47.312;11.060;2022-07-03T05:09:24;5.13;;;4.63;;
10902;SDS011;5504;47.312;11.060;2022-07-03T05:11:50;5.50;;;5.00;;
10902;SDS011;5504;47.312;11.060;2022-07-03T05:14:16;5.40;;;4.90;;
10902;SDS011;5504;47.312;11.060;2022-07-03T05:16:42;5.63;;;5.13;;
10902;SDS011;5504;47.312;11.060;2022-07-03T05:19:07;5.33;;;4.80;;
10902;SDS011;5504;47.312;11.060;2022-07-03T05:21:33;5.13;;;4.73;;
10902;SDS011;5504;47.312;11.060;2022-07-03T05:23:59;5.40;;;5.00;;
10902;SDS011;5504;47.312;11.060;2022-07-03T05:26:24;5.90;;;5.30;;
10902;SDS011;5504;47.312;11.060;2022-07-03T05:28:50;6.70;;;6.20;;
10902;SDS011;5504;47.312;11.060;2022-07-03T05:31:16;6.73;;;5.27;;
10902;SDS011;5504;47.312;11.060;2022-07-03T05:33:41;6.15;;;4.65;;
10902;SDS011;5504;47.312;11.060;2022-07-03T05:36:07;4.80;;;4.50;;
10902;SDS011;5504;47.312;11.060;2022-07-03T05:38:33;4.93;;;4.47;;
10902;SDS011;5504;47.312;11.060;2022-07-03T05:41:17;4.13;;;3.83;;
10902;SDS011;5504;47.312;11.060;2022-07-03T05:43:43;5.28;;;4.40;;
10902;SDS011;5504;47.312;11.060;2022-07-03T05:46:09;4.72;;;4.32;;
10902;SDS011;5504;47.312;11.060;2022-07-03T05:48:35;5.40;;;4.90;;
10902;SDS011;5504;47.312;11.060;2022-07-03T05:51:02;5.38;;;4.97;;
10902;SDS011;5504;47.312;11.060;2022-07-03T05:53:28;5.68;;;5.13;;
10902;SDS011;5504;47.312;11.060;2022-07-03T05:55:53;5.15;;;4.72;;
10902;SDS011;5504;47.312;11.060;2022-07-03T05:58:19;5.47;;;5.03;;
10902;SDS011;5504;47.312;11.060;2022-07-03T06:00:45;5.30;;;4.90;;
10902;SDS011;5504;47.312;11.060;2022-07-03T06:03:11;5.13;;;4.57;;
10902;SDS011;5504;47.312;11.060;2022-07-03T06:05:37;4.88;;;4.47;;
10902;SDS011;5504;47.312;11.060;2022-07-03T06:08:03;7.55;;;4.68;;
10902;SDS011;5504;47.312;11.060;2022-07-03T06:10:30;4.50;;;4.10;;
10902;SDS011;5504;47.312;11.060;2022-07-03T06:12:56;4.75;;;4.20;;
10902;SDS011;5504;47.312;11.060;2022-07-03T06:15:22;5.60;;;4.32;;
10902;SDS011;5504;47.312;11.060;2022-07-03T06:17:48;4.70;;;4.30;;
10902;SDS011;5504;47.312;11.060;2022-07-03T06:20:14;4.40;;;4.10;;
10902;SDS011;5504;47.312;11.060;2022-07-03T06:22:40;4.90;;;4.50;;
10902;SDS011;5504;47.312;11.060;2022-07-03T06:25:06;4.57;;;4.18;;
10902;SDS011;5504;47.312;11.060;2022-07-03T06:27:32;4.60;;;4.20;;
10902;SDS011;5504;47.312;11.060;2022-07-03T06:29:58;4.60;;;4.15;;
10902;SDS011;5504;47.312;11.060;2022-07-03T06:32:24;4.60;;;4.20;;
10902;SDS011;5504;47.312;11.060;2022-07-03T06:34:50;4.30;;;3.90;;
10902;SDS011;5504;47.312;11.060;2022-07-03T06:37:16;5.80;;;4.10;;
10902;SDS011;5504;47.312;11.060;2022-07-03T06:39:41;5.55;;;4.13;;
10902;SDS011;5504;47.312;11.060;2022-07-03T06:42:07;4.22;;;3.92;;
10902;SDS011;5504;47.312;11.060;2022-07-03T06:44:33;4.50;;;4.10;;
10902;SDS011;5504;47.312;11.060;2022-07-03T06:46:59;4.88;;;4.38;;
10902;SDS011;5504;47.312;11.060;2022-07-03T06:49:28;4.40;;;4.00;;
10902;SDS011;5504;47.312;11.060;2022-07-03T06:51:54;4.60;;;4.20;;
10902;SDS011;5504;47.312;11.060;2022-07-03T06:54:20;4.28;;;3.88;;
10902;SDS011;5504;47.312;11.060;2022-07-03T06:56:46;4.82;;;3.95;;
10902;SDS011;5504;47.312;11.060;2022-07-03T06:59:11;4.32;;;4.00;;
10902;SDS011;5504;47.312;11.060;2022-07-03T07:01:37;4.38;;;4.07;;
10902;SDS011;5504;47.312;11.060;2022-07-03T07:04:03;4.20;;;3.90;;
10902;SDS011;5504;47.312;11.060;2022-07-03T07:06:29;4.03;;;3.63;;
10902;SDS011;5504;47.312;11.060;2022-07-03T07:08:54;4.20;;;3.85;;
10902;SDS011;5504;47.312;11.060;2022-07-03T07:11:20;5.30;;;4.10;;
10902;SDS011;5504;47.312;11.060;2022-07-03T07:13:46;4.88;;;4.38;;
10902;SDS011;5504;47.312;11.060;2022-07-03T07:16:12;4.85;;;4.45;;
10902;SDS011;5504;47.312;11.060;2022-07-03T07:18:41;4.40;;;4.10;;
10902;SDS011;5504;47.312;11.060;2022-07-03T07:21:07;4.50;;;4.10;;
10902;SDS011;5504;47.312;11.060;2022-07-03T07:23:34;4.07;;;3.70;;
10902;SDS011;5504;47.312;11.060;2022-07-03T07:26:00;4.13;;;3.83;;
10902;SDS011;5504;47.312;11.060;2022-07-03T07:28:26;3.97;;;3.67;;
10902;SDS011;5504;47.312;11.060;2022-07-03T07:30:51;4.10;;;3.70;;
10902;SDS011;5504;47.312;11.060;2022-07-03T07:33:21;4.18;;;3.65;;
10902;SDS011;5504;47.312;11.060;2022-07-03T07:35:47;5.03;;;4.05;;
10902;SDS011;5504;47.312;11.060;2022-07-03T07:38:13;4.28;;;3.95;;
10902;SDS011;5504;47.312;11.060;2022-07-03T07:40:40;4.43;;;3.90;;
10902;SDS011;5504;47.312;11.060;2022-07-03T07:43:05;4.10;;;3.70;;
10902;SDS011;5504;47.312;11.060;2022-07-03T07:45:31;4.13;;;3.70;;
10902;SDS011;5504;47.312;11.060;2022-07-03T07:47:57;4.60;;;4.20;;
10902;SDS011;5504;47.312;11.060;2022-07-03T07:50:22;3.83;;;3.47;;
10902;SDS011;5504;47.312;11.060;2022-07-03T07:52:48;4.72;;;4.22;;
10902;SDS011;5504;47.312;11.060;2022-07-03T07:55:14;4.50;;;4.20;;
10902;SDS011;5504;47.312;11.060;2022-07-03T07:57:40;4.50;;;4.20;;
10902;SDS011;5504;47.312;11.060;2022-07-03T08:00:11;4.53;;;3.90;;
10902;SDS011;5504;47.312;11.060;2022-07-03T08:02:38;4.07;;;3.75;;
10902;SDS011;5504;47.312;11.060;2022-07-03T08:05:22;3.95;;;3.65;;
10902;SDS011;5504;47.312;11.060;2022-07-03T08:10:37;3.63;;;3.33;;
10902;SDS011;5504;47.312;11.060;2022-07-03T08:13:05;3.72;;;3.50;;
10902;SDS011;5504;47.312;11.060;2022-07-03T08:15:32;4.00;;;3.70;;
10902;SDS011;5504;47.312;11.060;2022-07-03T08:17:58;3.90;;;3.60;;
10902;SDS011;5504;47.312;11.060;2022-07-03T08:20:23;3.70;;;3.50;;
10902;SDS011;5504;47.312;11.060;2022-07-03T08:22:49;4.35;;;3.60;;
10902;SDS011;5504;47.312;11.060;2022-07-03T08:25:15;3.78;;;3.47;;
10902;SDS011;5504;47.312;11.060;2022-07-03T08:27:41;5.10;;;3.42;;
10902;SDS011;5504;47.312;11.060;2022-07-03T08:30:07;3.50;;;3.30;;
10902;SDS011;5504;47.312;11.060;2022-07-03T08:32:33;3.80;;;3.50;;
10902;SDS011;5504;47.312;11.060;2022-07-03T08:34:59;3.75;;;3.45;;
10902;SDS011;5504;47.312;11.060;2022-07-03T08:37:25;3.50;;;3.20;;
10902;SDS011;5504;47.312;11.060;2022-07-03T08:39:51;3.75;;;3.45;;
10902;SDS011;5504;47.312;11.060;2022-07-03T08:42:17;4.30;;;3.90;;
10902;SDS011;5504;47.312;11.060;2022-07-03T08:44:44;4.57;;;3.58;;
10902;SDS011;5504;47.312;11.060;2022-07-03T08:47:12;3.47;;;3.28;;
10902;SDS011;5504;47.312;11.060;2022-07-03T08:49:38;3.40;;;3.10;;
10902;SDS011;5504;47.312;11.060;2022-07-03T08:52:06;4.38;;;3.33;;
10902;SDS011;5504;47.312;11.060;2022-07-03T08:54:34;3.83;;;3.30;;
10902;SDS011;5504;47.312;11.060;2022-07-03T08:57:00;3.25;;;3.05;;
10902;SDS011;5504;47.312;11.060;2022-07-03T08:59:30;3.80;;;3.50;;
10902;SDS011;5504;47.312;11.060;2022-07-03T09:02:02;3.38;;;3.08;;
10902;SDS011;5504;47.312;11.060;2022-07-03T09:04:32;3.40;;;3.10;;
10902;SDS011;5504;47.312;11.060;2022-07-03T09:06:59;4.60;;;3.03;;
10902;SDS011;5504;47.312;11.060;2022-07-03T09:09:25;3.33;;;2.90;;
10902;SDS011;5504;47.312;11.060;2022-07-03T09:11:51;3.33;;;3.08;;
10902;SDS011;5504;47.312;11.060;2022-07-03T09:14:17;4.03;;;3.08;;
10902;SDS011;5504;47.312;11.060;2022-07-03T09:16:44;3.20;;;2.83;;
10902;SDS011;5504;47.312;11.060;2022-07-03T09:19:09;3.55;;;3.00;;
10902;SDS011;5504;47.312;11.060;2022-07-03T09:21:39;3.45;;;3.15;;
10902;SDS011;5504;47.312;11.060;2022-07-03T09:24:09;3.63;;;3.30;;
10902;SDS011;5504;47.312;11.060;2022-07-03T09:26:35;3.50;;;3.20;;
10902;SDS011;5504;47.312;11.060;2022-07-03T09:29:14;3.72;;;3.20;;
10902;SDS011;5504;47.312;11.060;2022-07-03T09:31:39;3.67;;;3.38;;
10902;SDS011;5504;47.312;11.060;2022-07-03T09:34:06;3.58;;;3.38;;
10902;SDS011;5504;47.312;11.060;2022-07-03T09:36:48;3.22;;;3.03;;
10902;SDS011;5504;47.312;11.060;2022-07-03T09:44:33;3.20;;;3.00;;
10902;SDS011;5504;47.312;11.060;2022-07-03T09:49:45;3.55;;;3.22;;
10902;SDS011;5504;47.312;11.060;2022-07-03T09:52:33;3.20;;;3.00;;
10902;SDS011;5504;47.312;11.060;2022-07-03T09:55:23;3.20;;;3.00;;
10902;SDS011;5504;47.312;11.060;2022-07-03T10:00:15;3.58;;;3.25;;
10902;SDS011;5504;47.312;11.060;2022-07-03T10:05:20;3.60;;;3.10;;
10902;SDS011;5504;47.312;11.060;2022-07-03T10:08:29;3.00;;;2.80;;
10902;SDS011;5504;47.312;11.060;2022-07-03T10:10:47;3.65;;;2.60;;
10902;SDS011;5504;47.312;11.060;2022-07-03T10:13:14;5.10;;;3.08;;
10902;SDS011;5504;47.312;11.060;2022-07-03T10:15:40;3.28;;;3.03;;
10902;SDS011;5504;47.312;11.060;2022-07-03T10:18:16;3.05;;;2.80;;
10902;SDS011;5504;47.312;11.060;2022-07-03T10:20:48;3.00;;;2.80;;
10902;SDS011;5504;47.312;11.060;2022-07-03T10:23:24;3.40;;;3.13;;
10902;SDS011;5504;47.312;11.060;2022-07-03T10:25:51;3.83;;;2.65;;
10902;SDS011;5504;47.312;11.060;2022-07-03T10:28:18;2.70;;;2.50;;
10902;SDS011;5504;47.312;11.060;2022-07-03T10:30:45;4.10;;;2.97;;
10902;SDS011;5504;47.312;11.060;2022-07-03T10:33:12;3.20;;;3.00;;
10902;SDS011;5504;47.312;11.060;2022-07-03T10:35:39;3.40;;;3.10;;
10902;SDS011;5504;47.312;11.060;2022-07-03T10:38:38;4.32;;;3.35;;
10902;SDS011;5504;47.312;11.060;2022-07-03T10:41:25;4.85;;;3.10;;
10902;SDS011;5504;47.312;11.060;2022-07-03T10:44:16;3.13;;;2.90;;
10902;SDS011;5504;47.312;11.060;2022-07-03T10:47:01;5.03;;;3.25;;
10902;SDS011;5504;47.312;11.060;2022-07-03T10:49:27;3.42;;;3.13;;
10902;SDS011;5504;47.312;11.060;2022-07-03T10:51:57;3.10;;;2.90;;
10902;SDS011;5504;47.312;11.060;2022-07-03T11:07:30;2.75;;;2.55;;
10902;SDS011;5504;47.312;11.060;2022-07-03T11:25:52;2.47;;;2.28;;
10902;SDS011;5504;47.312;11.060;2022-07-03T11:41:24;2.90;;;2.15;;
10902;SDS011;5504;47.312;11.060;2022-07-03T11:43:59;2.42;;;2.20;;
10902;SDS011;5504;47.312;11.060;2022-07-03T11:46:28;2.42;;;2.22;;
10902;SDS011;5504;47.312;11.060;2022-07-03T11:51:33;2.45;;;2.25;;
10902;SDS011;5504;47.312;11.060;2022-07-03T11:54:00;2.45;;;2.30;;
10902;SDS011;5504;47.312;11.060;2022-07-03T11:56:26;2.67;;;2.33;;
10902;SDS011;5504;47.312;11.060;2022-07-03T11:58:53;2.33;;;2.15;;
10902;SDS011;5504;47.312;11.060;2022-07-03T12:04:02;2.50;;;2.30;;
10902;SDS011;5504;47.312;11.060;2022-07-03T12:14:36;2.50;;;2.22;;
10902;SDS011;5504;47.312;11.060;2022-07-03T12:17:05;3.28;;;2.40;;
10902;SDS011;5504;47.312;11.060;2022-07-03T12:19:32;2.50;;;2.30;;
10902;SDS011;5504;47.312;11.060;2022-07-03T12:21:59;2.70;;;2.17;;
10902;SDS011;5504;47.312;11.060;2022-07-03T12:24:25;2.30;;;2.10;;
10902;SDS011;5504;47.312;11.060;2022-07-03T12:26:51;2.60;;;2.40;;
10902;SDS011;5504;47.312;11.060;2022-07-03T12:29:17;2.30;;;2.05;;
10902;SDS011;5504;47.312;11.060;2022-07-03T12:31:44;2.03;;;1.92;;
10902;SDS011;5504;47.312;11.060;2022-07-03T12:34:11;2.30;;;2.10;;
10902;SDS011;5504;47.312;11.060;2022-07-03T12:36:38;1.90;;;1.80;;
10902;SDS011;5504;47.312;11.060;2022-07-03T12:39:04;4.55;;;2.17;;
10902;SDS011;5504;47.312;11.060;2022-07-03T12:41:30;2.38;;;2.00;;
10902;SDS011;5504;47.312;11.060;2022-07-03T12:43:57;2.03;;;1.92;;
10902;SDS011;5504;47.312;11.060;2022-07-03T12:46:36;2.42;;;2.17;;
10902;SDS011;5504;47.312;11.060;2022-07-03T12:49:08;2.35;;;1.90;;
10902;SDS011;5504;47.312;11.060;2022-07-03T12:51:39;1.83;;;1.70;;
10902;SDS011;5504;47.312;11.060;2022-07-03T12:54:14;2.80;;;2.05;;
10902;SDS011;5504;47.312;11.060;2022-07-03T12:57:04;3.08;;;1.98;;
10902;SDS011;5504;47.312;11.060;2022-07-03T13:02:41;2.25;;;2.10;;
10902;SDS011;5504;47.312;11.060;2022-07-03T13:05:20;2.30;;;2.00;;
10902;SDS011;5504;47.312;11.060;2022-07-03T13:07:51;2.20;;;2.00;;
10902;SDS011;5504;47.312;11.060;2022-07-03T13:10:19;3.03;;;1.90;;
10902;SDS011;5504;47.312;11.060;2022-07-03T13:15:16;1.98;;;1.88;;
10902;SDS011;5504;47.312;11.060;2022-07-03T13:17:51;2.22;;;2.00;;
10902;SDS011;5504;47.312;11.060;2022-07-03T13:20:29;2.13;;;2.03;;
10902;SDS011;5504;47.312;11.060;2022-07-03T13:22:57;2.67;;;2.10;;
10902;SDS011;5504;47.312;11.060;2022-07-03T13:25:24;2.70;;;1.90;;
10902;SDS011;5504;47.312;11.060;2022-07-03T13:27:50;5.15;;;2.00;;
10902;SDS011;5504;47.312;11.060;2022-07-03T13:30:17;2.53;;;2.33;;
10902;SDS011;5504;47.312;11.060;2022-07-03T13:32:44;2.25;;;1.90;;
10902;SDS011;5504;47.312;11.060;2022-07-03T13:35:11;3.05;;;2.03;;
10902;SDS011;5504;47.312;11.060;2022-07-03T13:37:37;2.72;;;1.90;;
10902;SDS011;5504;47.312;11.060;2022-07-03T13:40:03;4.10;;;1.90;;
10902;SDS011;5504;47.312;11.060;2022-07-03T13:42:30;1.90;;;1.80;;
10902;SDS011;5504;47.312;11.060;2022-07-03T13:44:56;2.30;;;2.00;;
10902;SDS011;5504;47.312;11.060;2022-07-03T13:47:22;2.67;;;2.03;;
10902;SDS011;5504;47.312;11.060;2022-07-03T13:49:47;2.55;;;2.10;;
10902;SDS011;5504;47.312;11.060;2022-07-03T13:52:13;2.80;;;1.90;;
10902;SDS011;5504;47.312;11.060;2022-07-03T13:54:39;2.80;;;1.98;;
10902;SDS011;5504;47.312;11.060;2022-07-03T13:57:05;1.98;;;1.88;;
10902;SDS011;5504;47.312;11.060;2022-07-03T13:59:31;2.33;;;2.10;;
10902;SDS011;5504;47.312;11.060;2022-07-03T14:01:57;2.20;;;1.88;;
10902;SDS011;5504;47.312;11.060;2022-07-03T14:04:24;2.30;;;1.95;;
10902;SDS011;5504;47.312;11.060;2022-07-03T14:06:50;2.20;;;1.73;;
10902;SDS011;5504;47.312;11.060;2022-07-03T14:09:15;3.42;;;2.00;;
10902;SDS011;5504;47.312;11.060;2022-07-03T14:11:41;3.15;;;1.90;;
10902;SDS011;5504;47.312;11.060;2022-07-03T14:14:07;1.90;;;1.73;;
10902;SDS011;5504;47.312;11.060;2022-07-03T14:16:33;1.83;;;1.70;;
10902;SDS011;5504;47.312;11.060;2022-07-03T14:19:00;2.00;;;1.80;;
10902;SDS011;5504;47.312;11.060;2022-07-03T14:21:28;2.03;;;1.90;;
10902;SDS011;5504;47.312;11.060;2022-07-03T14:23:54;2.70;;;1.98;;
10902;SDS011;5504;47.312;11.060;2022-07-03T14:26:20;2.88;;;1.90;;
10902;SDS011;5504;47.312;11.060;2022-07-03T14:29:06;3.88;;;2.05;;
10902;SDS011;5504;47.312;11.060;2022-07-03T14:31:54;3.15;;;2.10;;
10902;SDS011;5504;47.312;11.060;2022-07-03T14:34:39;2.45;;;1.73;;
10902;SDS011;5504;47.312;11.060;2022-07-03T14:37:05;3.75;;;2.20;;
10902;SDS011;5504;47.312;11.060;2022-07-03T14:39:31;2.28;;;2.00;;
10902;SDS011;5504;47.312;11.060;2022-07-03T14:41:56;1.80;;;1.70;;
10902;SDS011;5504;47.312;11.060;2022-07-03T14:44:22;3.25;;;2.08;;
10902;SDS011;5504;47.312;11.060;2022-07-03T14:46:51;2.28;;;2.03;;
10902;SDS011;5504;47.312;11.060;2022-07-03T14:49:17;3.38;;;1.90;;
10902;SDS011;5504;47.312;11.060;2022-07-03T14:51:43;2.20;;;2.00;;
10902;SDS011;5504;47.312;11.060;2022-07-03T14:54:10;2.58;;;2.00;;
10902;SDS011;5504;47.312;11.060;2022-07-03T14:56:39;1.92;;;1.80;;
10902;SDS011;5504;47.312;11.060;2022-07-03T14:59:08;2.13;;;1.67;;
10902;SDS011;5504;47.312;11.060;2022-07-03T15:01:35;2.42;;;1.90;;
10902;SDS011;5504;47.312;11.060;2022-07-03T15:04:02;2.10;;;1.90;;
10902;SDS011;5504;47.312;11.060;2022-07-03T15:06:29;4.13;;;2.58;;
10902;SDS011;5504;47.312;11.060;2022-07-03T15:08:59;2.30;;;2.00;;
10902;SDS011;5504;47.312;11.060;2022-07-03T15:11:40;2.17;;;1.98;;
10902;SDS011;5504;47.312;11.060;2022-07-03T15:14:34;7.10;;;1.90;;
10902;SDS011;5504;47.312;11.060;2022-07-03T15:17:07;2.10;;;1.90;;
10902;SDS011;5504;47.312;11.060;2022-07-03T15:19:33;1.90;;;1.80;;
10902;SDS011;5504;47.312;11.060;2022-07-03T15:22:00;2.83;;;1.83;;
10902;SDS011;5504;47.312;11.060;2022-07-03T15:24:28;1.65;;;1.55;;
10902;SDS011;5504;47.312;11.060;2022-07-03T15:26:55;2.42;;;1.80;;
10902;SDS011;5504;47.312;11.060;2022-07-03T15:29:22;2.65;;;1.65;;
10902;SDS011;5504;47.312;11.060;2022-07-03T15:31:48;1.75;;;1.65;;
10902;SDS011;5504;47.312;11.060;2022-07-03T15:34:14;2.92;;;1.90;;
10902;SDS011;5504;47.312;11.060;2022-07-03T15:39:17;1.83;;;1.73;;
10902;SDS011;5504;47.312;11.060;2022-07-03T15:42:05;1.95;;;1.73;;
10902;SDS011;5504;47.312;11.060;2022-07-03T15:44:46;2.03;;;1.80;;
10902;SDS011;5504;47.312;11.060;2022-07-03T15:47:34;2.03;;;1.92;;
10902;SDS011;5504;47.312;11.060;2022-07-03T15:50:16;2.78;;;2.00;;
10902;SDS011;5504;47.312;11.060;2022-07-03T15:52:51;2.05;;;1.60;;
10902;SDS011;5504;47.312;11.060;2022-07-03T15:55:16;3.10;;;1.70;;
10902;SDS011;5504;47.312;11.060;2022-07-03T15:57:51;3.42;;;1.85;;
10902;SDS011;5504;47.312;11.060;2022-07-03T16:00:29;2.38;;;2.20;;
10902;SDS011;5504;47.312;11.060;2022-07-03T16:03:01;2.78;;;2.20;;
10902;SDS011;5504;47.312;11.060;2022-07-03T16:05:36;2.20;;;1.98;;
10902;SDS011;5504;47.312;11.060;2022-07-03T16:08:07;3.05;;;1.85;;
10902;SDS011;5504;47.312;11.060;2022-07-03T16:10:35;1.80;;;1.70;;
10902;SDS011;5504;47.312;11.060;2022-07-03T16:13:02;4.40;;;1.85;;
10902;SDS011;5504;47.312;11.060;2022-07-03T16:15:36;1.95;;;1.80;;
10902;SDS011;5504;47.312;11.060;2022-07-03T16:18:03;2.70;;;1.80;;
10902;SDS011;5504;47.312;11.060;2022-07-03T16:20:30;4.30;;;2.10;;
10902;SDS011;5504;47.312;11.060;2022-07-03T16:22:59;3.00;;;2.00;;
10902;SDS011;5504;47.312;11.060;2022-07-03T16:25:28;3.28;;;2.05;;
10902;SDS011;5504;47.312;11.060;2022-07-03T16:28:02;3.13;;;1.80;;
10902;SDS011;5504;47.312;11.060;2022-07-03T16:30:44;2.40;;;1.85;;
10902;SDS011;5504;47.312;11.060;2022-07-03T16:33:11;2.50;;;1.73;;
10902;SDS011;5504;47.312;11.060;2022-07-03T16:35:42;2.20;;;1.70;;
10902;SDS011;5504;47.312;11.060;2022-07-03T16:38:11;2.05;;;1.85;;
10902;SDS011;5504;47.312;11.060;2022-07-03T16:40:52;2.10;;;1.80;;
10902;SDS011;5504;47.312;11.060;2022-07-03T16:43:19;2.00;;;1.80;;
10902;SDS011;5504;47.312;11.060;2022-07-03T16:45:46;1.80;;;1.70;;
10902;SDS011;5504;47.312;11.060;2022-07-03T16:48:14;4.38;;;1.90;;